Main page
METAR-TAF:

METAR-TAF

Airports :

Mount Pleasant Municipal Airport

Mount Pleasant, Iowa, United States

latitude: 40-56-48N, longitude: 091-30-40W, elevation: 735 ft

Current weather observation

The report was made 26 minutes ago, at 06:35 UTC
Wind 6 mph from the Southwest
Temperature 41°F
Humidity 60%
Pressure 30.15 in. Hg
Visibility: 10 miles
Clear sky

METAR: KMPZ 220635Z AUTO 22005KT 10SM CLR 05/M02 A3015 RMK AO2

Time: 02:01 (07:01 UTC)


TAF: missing

Weather observations and forecasts of more than 4000 airports (METAR and TAF reports).

The available stations are represented by yellow and red dots on the map.

Hover mouse over dot to see the name of the station.

Then click to see weather observations and forecasts.

To change the map : click on the green buttons with a black cross to zoom in, on the green button with a dash to zoom out, or on the green arrows for adjacent maps.


METAR-TAF: